Time;durP1;ratioP1;P1;durP2;ratioP2;P2;SDS_P1;SDS_P2;PMS_P1;PMS_P2;Temp;Humidity;BMP_temperature;BMP_pressure;BME280_temperature;BME280_humidity;BME280_pressure;Samples;Min_cycle;Max_cycle;Signal;HPM_P1;HPM_P2
2023/04/17 00:02:10;;;;;;;6.33;5.73;;;8.30;99.90;;;8.47;90.11;98305.78;5045639;28;20487;-75
2023/04/17 00:04:39;;;;;;;9.20;6.67;;;8.20;99.90;;;8.73;89.46;98312.44;5044459;28;20465;-77
2023/04/17 00:07:07;;;;;;;7.60;6.90;;;8.30;99.90;;;8.83;89.21;98313.94;5033087;28;20464;-75
2023/04/17 00:09:34;;;;;;;7.40;6.77;;;8.30;99.90;;;8.56;89.65;98316.44;5068537;28;20547;-75
2023/04/17 00:12:01;;;;;;;7.77;6.97;;;8.30;99.90;;;8.69;89.30;98311.16;5039645;28;20503;-77
2023/04/17 00:14:28;;;;;;;7.87;7.07;;;8.30;99.90;;;8.59;90.17;98306.13;5035724;28;20476;-76
2023/04/17 00:16:59;;;;;;;8.40;7.27;;;8.20;99.90;;;8.63;89.97;98306.56;5032001;28;20463;-76
2023/04/17 00:19:27;;;;;;;7.77;7.00;;;8.20;99.90;;;8.67;88.77;98307.00;5047256;28;20460;-77
2023/04/17 00:21:54;;;;;;;8.80;7.23;;;8.30;99.90;;;8.71;89.22;98303.72;5035487;28;20550;-74
2023/04/17 00:24:21;;;;;;;9.80;7.03;;;8.30;99.90;;;8.63;88.73;98312.78;5050179;28;20448;-77
2023/04/17 00:26:48;;;;;;;7.90;7.30;;;8.30;99.90;;;8.83;88.83;98305.88;5036023;28;20924;-76
2023/04/17 00:29:15;;;;;;;9.50;7.77;;;8.30;99.90;;;8.54;89.18;98307.72;5041557;28;20467;-75
2023/04/17 00:31:42;;;;;;;7.63;6.93;;;8.30;99.90;;;8.00;89.44;98218.44;5057432;28;20854;-75
2023/04/17 00:34:11;;;;;;;9.33;7.10;;;8.20;99.90;;;8.54;89.91;98302.34;5054717;28;21160;-76
2023/04/17 00:36:38;;;;;;;8.63;7.77;;;8.20;99.90;;;8.32;90.37;98303.16;5041104;28;20444;-74
2023/04/17 00:39:06;;;;;;;9.40;8.00;;;8.20;99.90;;;8.71;89.38;98298.31;5037363;28;20483;-76
2023/04/17 00:41:33;;;;;;;8.87;7.47;;;8.30;99.90;;;8.39;90.12;98292.47;5041390;28;20444;-76
2023/04/17 00:44:01;;;;;;;8.57;7.77;;;8.20;99.90;;;8.56;89.73;98300.28;5053614;28;20445;-75
2023/04/17 00:46:30;;;;;;;8.93;7.77;;;8.10;99.90;;;8.71;88.51;98295.63;5036935;28;20966;-76
2023/04/17 00:48:57;;;;;;;8.57;7.47;;;8.20;99.90;;;8.58;89.08;98290.16;5048657;28;20475;-76
2023/04/17 00:51:26;;;;;;;7.43;6.73;;;8.20;99.90;;;8.59;89.29;98299.91;5041037;28;20535;-76
2023/04/17 00:53:54;;;;;;;8.30;7.43;;;8.20;99.90;;;8.65;88.92;98296.41;5031713;28;20454;-75
2023/04/17 00:56:21;;;;;;;8.23;7.43;;;8.20;99.90;;;8.75;88.53;98301.47;5033210;28;20463;-76
2023/04/17 00:58:49;;;;;;;6.87;5.90;;;8.20;99.90;;;8.53;88.53;98279.13;5032242;28;20852;-77
2023/04/17 01:01:16;;;;;;;8.70;7.43;;;8.20;99.90;;;8.52;89.39;98296.31;5044835;28;20454;-75
2023/04/17 01:03:44;;;;;;;8.70;7.50;;;8.20;99.90;;;8.46;89.19;98290.66;5048366;28;20468;-74
2023/04/17 01:06:12;;;;;;;8.03;7.33;;;8.20;99.90;;;8.63;88.36;98301.19;5042242;28;20476;-73
2023/04/17 01:08:43;;;;;;;8.30;7.50;;;8.20;99.90;;;8.61;88.63;98295.16;5037646;28;20483;-75
2023/04/17 01:11:11;;;;;;;9.00;8.10;;;8.20;99.90;;;8.66;88.54;98295.41;5042028;28;20460;-76
2023/04/17 01:13:46;;;;;;;9.67;7.30;;;8.20;99.90;;;8.46;89.33;98296.06;5060126;28;21014;-76
2023/04/17 01:16:13;;;;;;;8.53;7.60;;;8.20;99.90;;;8.45;89.56;98293.53;5043063;28;20462;-74
2023/04/17 01:18:41;;;;;;;8.30;7.50;;;8.10;99.90;;;8.62;89.03;98294.94;5046489;28;20460;-75
2023/04/17 01:21:10;;;;;;;8.40;7.60;;;8.20;99.90;;;8.65;88.91;98288.34;5042778;28;21061;-76
2023/04/17 01:23:47;;;;;;;8.37;7.23;;;8.10;99.90;;;8.52;89.19;98282.84;5036258;28;20447;-76
2023/04/17 01:26:20;;;;;;;9.37;8.37;;;8.10;99.90;;;8.33;90.01;98290.56;5032377;28;20482;-75
2023/04/17 01:28:52;;;;;;;8.17;7.37;;;8.00;99.90;;;8.39;89.56;98289.75;5033986;28;20611;-73
2023/04/17 01:31:19;;;;;;;9.97;8.60;;;8.00;99.90;;;8.48;89.43;98282.38;5039166;28;20453;-75
2023/04/17 01:33:48;;;;;;;8.37;7.60;;;8.00;99.90;;;8.23;89.03;98229.78;5043418;28;20558;-73
2023/04/17 01:36:16;;;;;;;8.73;7.93;;;8.10;99.90;;;8.44;89.56;98290.03;5014423;28;20539;-76
2023/04/17 01:38:44;;;;;;;8.60;7.70;;;8.10;99.90;;;8.44;89.66;98289.19;5035583;28;21000;-77
2023/04/17 01:41:11;;;;;;;8.10;7.13;;;8.10;99.90;;;8.37;89.59;98286.44;5033715;28;20457;-76
2023/04/17 01:43:42;;;;;;;8.43;7.63;;;8.10;99.90;;;8.44;89.66;98271.19;5035105;28;20456;-76
2023/04/17 01:46:10;;;;;;;8.00;7.30;;;8.10;99.90;;;8.71;88.34;98279.47;5030411;28;20479;-75
2023/04/17 01:48:38;;;;;;;10.20;8.53;;;8.20;99.90;;;8.41;89.52;98293.09;5039501;28;20466;-77
2023/04/17 01:51:06;;;;;;;8.93;8.03;;;8.10;99.90;;;8.55;89.24;98298.63;5036348;28;20490;-76
2023/04/17 01:53:35;;;;;;;9.77;8.53;;;8.10;99.90;;;8.57;88.93;98292.00;5034869;28;20504;-74
2023/04/17 01:56:02;;;;;;;8.57;7.67;;;8.20;99.90;;;8.45;89.82;98290.84;5028567;28;20453;-76
2023/04/17 01:58:29;;;;;;;9.20;8.30;;;8.10;99.90;;;8.49;89.98;98290.28;5031996;28;20483;-76
2023/04/17 02:00:58;;;;;;;9.10;8.20;;;8.10;99.90;;;8.41;90.04;98289.59;5031382;28;20486;-75
2023/04/17 02:03:25;;;;;;;9.63;8.63;;;8.10;99.90;;;8.57;88.79;98285.78;5032279;28;20454;-74
2023/04/17 02:05:53;;;;;;;9.43;8.40;;;8.20;99.90;;;8.36;89.15;98290.16;5061111;28;20484;-74
2023/04/17 02:08:21;;;;;;;11.40;8.90;;;8.10;99.90;;;8.40;89.93;98294.13;5036715;28;20457;-76
2023/04/17 02:10:48;;;;;;;10.60;9.20;;;8.10;99.90;;;8.43;89.59;98296.44;5037074;28;20513;-76
2023/04/17 02:13:16;;;;;;;9.80;8.60;;;8.10;99.90;;;8.29;90.11;98294.66;5047048;28;20489;-74
2023/04/17 02:15:43;;;;;;;11.83;8.60;;;8.00;99.90;;;8.28;90.25;98290.31;5033742;28;20464;-74
2023/04/17 02:18:12;;;;;;;11.43;9.40;;;8.10;99.90;;;8.30;89.68;98290.94;5059270;28;20891;-76
2023/04/17 02:20:39;;;;;;;9.63;8.73;;;8.10;99.90;;;8.28;90.67;98293.00;5047564;28;20516;-74
2023/04/17 02:23:07;;;;;;;8.90;8.00;;;8.00;99.90;;;8.62;88.97;98294.94;5033342;28;20453;-75
2023/04/17 02:25:35;;;;;;;10.33;9.20;;;8.20;99.90;;;8.39;88.66;98295.16;5049976;28;20474;-74
2023/04/17 02:28:02;;;;;;;10.60;8.30;;;8.20;99.90;;;8.34;89.90;98306.53;5029091;28;20533;-73
2023/04/17 02:30:29;;;;;;;9.60;7.97;;;8.10;99.90;;;8.61;88.46;98301.38;5030441;28;20540;-74
2023/04/17 02:32:57;;;;;;;9.70;8.30;;;8.20;99.90;;;8.44;88.62;98286.50;5035663;28;20525;-75
2023/04/17 02:35:28;;;;;;;11.40;8.30;;;8.10;99.90;;;8.46;88.59;98309.53;5047471;28;20486;-73
2023/04/17 02:37:55;;;;;;;8.33;6.50;;;8.20;99.90;;;8.42;89.71;98304.72;5049822;28;20476;-73
2023/04/17 02:40:23;;;;;;;8.30;6.90;;;8.10;99.90;;;8.34;89.10;98298.44;5050065;28;21338;-72
2023/04/17 02:42:51;;;;;;;5.40;4.90;;;8.10;99.90;;;8.18;88.40;98271.78;5038577;28;20455;-74
2023/04/17 02:45:19;;;;;;;6.37;5.27;;;8.20;99.90;;;8.34;89.52;98306.53;5043202;28;20951;-75
2023/04/17 02:47:46;;;;;;;5.50;4.20;;;8.00;99.90;;;8.43;88.21;98293.75;5063422;28;21388;-74
2023/04/17 02:50:13;;;;;;;9.37;4.80;;;8.20;99.90;;;8.36;89.30;98306.31;5033419;28;20574;-74
2023/04/17 02:52:42;;;;;;;5.90;4.33;;;8.10;99.90;;;8.17;89.87;98270.13;5031354;28;20516;-74
2023/04/17 02:55:09;;;;;;;5.63;4.30;;;8.00;99.90;;;8.33;89.12;98307.53;5034900;28;20451;-75
2023/04/17 02:57:36;;;;;;;4.20;3.40;;;8.10;99.90;;;8.50;89.35;98302.75;5043861;28;20682;-74
2023/04/17 03:00:07;;;;;;;4.93;3.93;;;8.10;99.90;;;8.39;89.02;98305.09;5031033;28;20458;-73
2023/04/17 03:02:35;;;;;;;4.90;3.70;;;8.00;99.90;;;8.35;89.26;98293.88;5029241;28;20582;-74
2023/04/17 03:05:03;;;;;;;4.70;4.10;;;8.00;99.90;;;8.29;89.33;98289.28;5030906;28;20455;-76
2023/04/17 03:07:30;;;;;;;3.53;3.23;;;8.00;99.90;;;8.58;88.54;98293.69;5035714;28;20481;-76
2023/04/17 03:09:59;;;;;;;5.40;3.73;;;8.00;99.90;;;8.35;88.91;98296.56;5036158;28;20450;-76
2023/04/17 03:12:26;;;;;;;4.00;3.60;;;8.00;99.90;;;8.59;87.90;98302.59;5036737;28;20489;-76
2023/04/17 03:14:53;;;;;;;4.57;2.90;;;8.10;99.90;;;8.59;87.50;98289.13;5039730;28;20534;-73
2023/04/17 03:17:20;;;;;;;5.23;3.57;;;8.10;99.90;;;8.69;87.31;98303.06;5036976;28;20949;-75
2023/04/17 03:19:47;;;;;;;5.70;3.63;;;8.20;99.90;;;8.56;86.98;98297.59;5043340;28;21110;-75
2023/04/17 03:22:15;;;;;;;4.07;3.40;;;8.10;99.90;;;8.60;87.06;98299.69;5047921;28;20475;-75
2023/04/17 03:24:42;;;;;;;4.97;3.40;;;8.10;99.90;;;8.44;87.09;98264.94;5036638;28;20463;-72
2023/04/17 03:27:11;;;;;;;5.17;3.40;;;8.20;99.90;;;8.78;86.63;98296.53;5033806;28;20488;-76
2023/04/17 03:29:38;;;;;;;3.50;3.20;;;8.20;99.90;;;8.40;87.51;98302.19;5037594;28;20471;-75
2023/04/17 03:32:06;;;;;;;8.87;3.77;;;8.10;99.90;;;8.35;87.95;98305.50;5064720;28;20499;-75
2023/04/17 03:34:33;;;;;;;4.97;3.37;;;8.00;99.90;;;8.38;88.81;98301.56;5038896;28;20495;-74
2023/04/17 03:37:00;;;;;;;4.20;3.57;;;8.00;99.90;;;8.53;87.35;98311.44;5037655;28;20517;-74
2023/04/17 03:39:27;;;;;;;4.03;3.63;;;8.10;99.90;;;8.52;87.76;98316.03;5039956;28;20778;-74
2023/04/17 03:41:55;;;;;;;4.63;3.97;;;8.20;99.90;;;8.65;87.43;98320.66;5039553;28;20459;-75
2023/04/17 03:44:23;;;;;;;4.60;4.20;;;8.20;99.90;;;8.30;88.35;98302.53;5053179;28;20458;-74
2023/04/17 03:46:51;;;;;;;3.90;3.37;;;8.20;99.90;;;8.56;88.29;98313.75;5043575;28;20524;-73
2023/04/17 03:49:18;;;;;;;4.57;3.57;;;8.10;99.90;;;8.58;88.07;98314.41;5047052;28;20457;-73
2023/04/17 03:51:45;;;;;;;4.73;3.57;;;8.10;99.90;;;8.77;86.71;98311.03;5042896;28;20554;-74
2023/04/17 03:54:12;;;;;;;4.87;3.90;;;8.20;99.90;;;8.73;86.93;98312.44;5034638;28;20499;-73
2023/04/17 03:56:40;;;;;;;4.83;4.20;;;8.30;99.90;;;8.63;86.58;98312.78;5067786;28;20444;-74
2023/04/17 03:59:07;;;;;;;4.40;3.30;;;8.30;99.90;;;8.40;88.72;98306.78;5036909;28;20466;-73
2023/04/17 04:01:37;;;;;;;3.43;3.13;;;8.20;99.90;;;8.39;89.16;98311.31;5043953;28;20515;-74
2023/04/17 04:04:04;;;;;;;5.13;3.43;;;8.10;99.90;;;8.42;89.14;98319.03;5041152;28;20454;-75
2023/04/17 04:06:32;;;;;;;3.90;3.37;;;8.10;99.90;;;8.37;89.62;98316.06;5046746;28;20474;-74
2023/04/17 04:08:59;;;;;;;5.00;3.80;;;8.00;99.90;;;8.41;89.00;98319.19;5030848;28;20552;-76
2023/04/17 04:11:26;;;;;;;3.97;3.30;;;8.00;99.90;;;8.34;89.41;98325.38;5064876;28;20482;-76
2023/04/17 04:13:54;;;;;;;4.17;3.70;;;8.10;99.90;;;8.28;90.06;98319.94;5037211;28;20944;-76
2023/04/17 04:16:21;;;;;;;4.80;3.20;;;8.00;99.90;;;8.57;88.49;98328.88;5023546;28;20565;-74
2023/04/17 04:18:49;;;;;;;5.17;3.63;;;8.10;99.90;;;8.17;89.57;98327.47;5036571;28;20450;-77
2023/04/17 04:21:16;;;;;;;5.53;3.90;;;8.00;99.90;;;8.08;90.40;98332.16;5036049;28;20544;-73
2023/04/17 04:23:44;;;;;;;5.47;3.37;;;8.00;99.90;;;8.36;89.49;98335.94;5045010;28;22296;-75
2023/04/17 04:26:12;;;;;;;4.97;4.00;;;8.00;99.90;;;8.12;90.20;98331.78;5037367;28;20472;-74
2023/04/17 04:28:39;;;;;;;6.00;4.07;;;8.00;99.90;;;8.10;90.14;98334.66;5037482;28;20535;-75
2023/04/17 04:31:06;;;;;;;3.47;2.93;;;7.90;99.90;;;8.33;89.24;98323.69;5037982;28;20479;-74
2023/04/17 04:33:34;;;;;;;4.13;3.73;;;8.00;99.90;;;8.20;90.22;98329.78;5025508;28;20601;-75
2023/04/17 04:36:03;;;;;;;4.60;4.10;;;8.00;99.90;;;8.30;89.57;98328.63;5026456;28;20978;-73
2023/04/17 04:38:31;;;;;;;5.10;3.70;;;8.00;99.90;;;8.42;89.45;98329.78;5027550;28;20459;-77
2023/04/17 04:41:04;;;;;;;4.70;3.23;;;8.10;99.90;;;8.55;88.72;98341.72;5032974;28;20459;-75
2023/04/17 04:43:32;;;;;;;4.90;3.90;;;8.20;99.90;;;8.47;89.12;98334.56;5036382;28;20563;-78
2023/04/17 04:45:59;;;;;;;5.67;3.20;;;8.20;99.90;;;8.34;89.16;98324.53;5027795;28;20984;-78
2023/04/17 04:48:27;;;;;;;4.80;4.27;;;8.10;99.90;;;8.36;89.34;98327.84;5044161;28;20449;-77
2023/04/17 04:50:55;;;;;;;5.97;4.10;;;8.10;99.90;;;8.52;88.73;98331.31;5035022;28;20466;-74
2023/04/17 04:53:23;;;;;;;5.00;3.77;;;8.20;99.90;;;8.38;88.57;98320.41;5033199;28;20541;-78
2023/04/17 04:55:51;;;;;;;4.67;3.53;;;8.20;99.90;;;8.43;88.21;98311.75;5036890;28;20462;-77
2023/04/17 04:58:18;;;;;;;4.83;3.47;;;8.20;99.90;;;8.61;88.25;98336.38;5035303;28;20489;-76
2023/04/17 05:00:45;;;;;;;5.27;4.00;;;8.30;99.90;;;8.75;87.08;98331.94;5044121;28;20455;-76
2023/04/17 05:03:13;;;;;;;5.33;3.67;;;8.40;99.90;;;8.73;87.49;98328.63;5035929;28;20456;-76
2023/04/17 05:05:40;;;;;;;3.20;2.50;;;8.40;99.90;;;9.00;86.10;98342.25;5033983;28;21277;-72
2023/04/17 05:08:08;;;;;;;5.90;3.47;;;8.50;99.90;;;9.24;85.05;98342.81;5039049;28;20477;-72
2023/04/17 05:10:36;;;;;;;4.63;3.10;;;8.60;99.90;;;9.35;83.40;98342.28;5039445;28;20981;-71
2023/04/17 05:13:04;;;;;;;4.60;3.40;;;8.80;99.90;;;9.18;84.75;98351.72;5040886;28;20450;-73
2023/04/17 05:15:31;;;;;;;4.57;3.30;;;8.80;99.90;;;9.19;84.13;98345.28;5036354;28;20442;-75
2023/04/17 05:17:58;;;;;;;5.90;3.73;;;8.80;99.90;;;8.71;84.63;98289.44;5027338;28;20924;-73
2023/04/17 05:20:26;;;;;;;3.00;2.70;;;8.80;99.90;;;9.17;85.00;98350.88;5030561;28;20473;-75
2023/04/17 05:22:54;;;;;;;4.70;3.20;;;8.80;99.90;;;9.21;84.31;98351.31;5032608;28;20474;-70
2023/04/17 05:25:21;;;;;;;3.57;2.90;;;8.80;99.90;;;9.23;83.87;98349.25;5058918;28;20534;-73
2023/04/17 05:27:52;;;;;;;3.87;3.47;;;8.80;99.90;;;9.19;84.39;98354.19;5067230;28;20536;-74
2023/04/17 05:30:19;;;;;;;4.67;3.33;;;8.80;99.90;;;9.24;83.64;98356.31;5037968;28;20451;-73
2023/04/17 05:32:48;;;;;;;4.23;3.63;;;8.70;99.90;;;9.30;83.33;98360.88;5043226;28;20437;-72
2023/04/17 05:35:15;;;;;;;5.10;3.37;;;8.90;99.90;;;9.23;84.49;98365.44;5040817;28;20462;-73
2023/04/17 05:37:42;;;;;;;5.57;3.83;;;8.80;99.90;;;9.33;83.40;98360.50;5034053;28;20500;-73
2023/04/17 05:40:11;;;;;;;5.67;3.70;;;8.90;99.90;;;9.39;83.11;98368.84;5045121;28;20455;-74
2023/04/17 05:42:38;;;;;;;6.90;5.23;;;8.90;99.90;;;9.20;83.78;98357.75;5035046;28;20549;-73
2023/04/17 05:45:08;;;;;;;4.00;2.67;;;8.90;99.90;;;9.22;84.00;98369.16;5034467;28;20500;-74
2023/04/17 05:47:37;;;;;;;4.30;3.33;;;8.90;99.90;;;9.41;83.24;98367.59;5029390;28;20517;-71
2023/04/17 05:50:05;;;;;;;4.27;3.30;;;9.00;99.90;;;9.58;83.19;98372.66;5031615;28;20470;-73
2023/04/17 05:52:32;;;;;;;6.33;3.80;;;9.10;99.90;;;9.58;83.13;98370.78;5035618;28;20499;-76
2023/04/17 05:54:59;;;;;;;4.07;3.43;;;9.10;99.90;;;9.73;81.66;98370.66;5062293;28;20448;-73
2023/04/17 05:57:26;;;;;;;4.10;3.30;;;9.20;99.40;;;9.83;81.08;98367.59;5035337;28;20494;-75
2023/04/17 05:59:54;;;;;;;5.33;3.73;;;9.40;98.00;;;9.76;80.77;98362.16;5036318;28;20467;-74
2023/04/17 06:02:22;;;;;;;6.20;3.63;;;9.40;97.20;;;9.81;80.74;98361.56;5031475;28;20514;-74
2023/04/17 06:04:49;;;;;;;3.63;3.00;;;9.40;97.50;;;9.81;80.62;98318.38;5036071;28;21016;-80
2023/04/17 06:07:17;;;;;;;4.60;3.17;;;9.60;97.50;;;10.05;80.24;98373.66;5030991;28;20486;-70
2023/04/17 06:09:44;;;;;;;4.60;3.43;;;9.60;96.50;;;9.89;79.55;98358.66;5032043;28;20516;-71
2023/04/17 06:12:14;;;;;;;3.83;3.27;;;9.60;95.80;;;10.26;79.74;98373.72;5040219;28;20480;-70
2023/04/17 06:14:42;;;;;;;4.90;3.70;;;9.60;96.60;;;10.18;79.10;98372.88;5040186;28;20549;-71
2023/04/17 06:17:11;;;;;;;3.83;3.20;;;9.70;95.80;;;10.27;79.20;98378.91;5027724;28;20530;-71
2023/04/17 06:19:39;;;;;;;4.73;3.10;;;9.70;95.80;;;10.23;79.50;98374.97;5035972;28;20592;-70
2023/04/17 06:22:07;;;;;;;4.03;3.13;;;9.70;95.70;;;10.21;79.36;98371.63;5033341;28;20849;-70
2023/04/17 06:24:35;;;;;;;4.47;2.97;;;9.80;95.00;;;10.23;79.06;98384.91;5032432;28;20478;-70
2023/04/17 06:27:03;;;;;;;3.57;3.10;;;9.70;94.90;;;10.27;78.93;98381.59;5023923;28;20484;-70
2023/04/17 06:29:30;;;;;;;4.60;3.30;;;9.80;95.10;;;10.37;77.45;98335.28;5031500;28;20465;-70
2023/04/17 06:31:58;;;;;;;3.87;3.33;;;10.00;94.10;;;10.62;77.14;98367.13;5032865;28;21819;-71
2023/04/17 06:34:25;;;;;;;4.50;3.30;;;10.10;93.40;;;10.78;76.72;98387.53;5034056;28;20465;-71
2023/04/17 06:36:53;;;;;;;4.60;3.60;;;10.20;92.70;;;10.90;76.16;98391.25;5035818;28;21021;-70
2023/04/17 06:39:21;;;;;;;5.00;3.10;;;10.40;92.10;;;11.18;75.54;98387.47;5031976;28;20486;-71
2023/04/17 06:41:49;;;;;;;4.90;3.63;;;10.50;92.10;;;11.40;74.18;98389.13;5030183;28;20511;-71
2023/04/17 06:44:17;;;;;;;4.03;3.50;;;10.70;91.30;;;11.55;73.72;98392.41;5035721;28;20449;-71
2023/04/17 06:46:44;;;;;;;4.83;3.90;;;10.90;90.90;;;11.56;73.13;98393.25;5046964;28;20457;-71
2023/04/17 06:49:11;;;;;;;6.20;3.40;;;10.90;90.40;;;11.42;72.99;98387.88;5046326;28;21008;-70
2023/04/17 06:51:38;;;;;;;5.93;3.67;;;10.90;89.70;;;11.28;73.82;98389.75;5047940;28;20449;-71
2023/04/17 06:54:08;;;;;;;4.23;3.30;;;10.80;90.20;;;11.32;73.81;98393.72;5048222;28;20453;-71
2023/04/17 06:56:35;;;;;;;3.67;3.07;;;10.80;90.20;;;11.31;73.83;98397.47;5054374;28;21264;-71
2023/04/17 06:59:03;;;;;;;3.13;2.53;;;10.90;90.30;;;11.33;73.51;98395.38;5041819;28;20544;-70
2023/04/17 07:01:31;;;;;;;5.07;3.50;;;10.90;90.00;;;11.55;72.39;98389.69;5035458;28;20461;-70
2023/04/17 07:03:58;;;;;;;3.87;3.30;;;11.00;89.70;;;11.39;73.47;98388.31;5043452;28;20527;-70
2023/04/17 07:06:26;;;;;;;4.37;3.17;;;11.10;89.70;;;11.68;72.15;98390.72;5046400;28;20452;-70
2023/04/17 07:08:53;;;;;;;3.97;3.30;;;11.20;89.20;;;11.74;71.94;98387.13;5038276;28;20476;-70
2023/04/17 07:11:22;;;;;;;3.93;3.30;;;11.20;88.60;;;11.71;71.40;98398.38;5045705;28;20550;-73
2023/04/17 07:13:49;;;;;;;3.10;2.80;;;11.30;87.70;;;11.53;72.29;98405.31;5045976;28;20456;-70
2023/04/17 07:16:20;;;;;;;3.93;3.53;;;11.10;87.90;;;11.54;71.94;98401.56;5037347;28;20449;-71
2023/04/17 07:18:47;;;;;;;5.80;3.40;;;11.10;88.30;;;11.27;73.07;98396.22;5048645;28;20962;-71
2023/04/17 07:21:14;;;;;;;4.10;3.60;;;11.00;88.40;;;11.54;72.23;98396.16;5040502;28;20554;-70
2023/04/17 07:23:42;;;;;;;4.80;3.13;;;11.00;88.70;;;11.69;71.34;98404.03;5035456;28;20473;-71
2023/04/17 07:26:10;;;;;;;4.57;3.60;;;11.00;88.00;;;11.88;70.58;98407.69;5052463;28;20514;-70
2023/04/17 07:28:39;;;;;;;4.20;3.30;;;11.10;87.80;;;11.87;70.19;98403.31;5053902;28;20806;-70
2023/04/17 07:31:08;;;;;;;5.97;3.33;;;11.20;87.20;;;12.16;68.94;98403.03;5038613;28;20460;-73
2023/04/17 07:33:35;;;;;;;4.47;3.40;;;11.50;86.60;;;12.08;68.11;98409.53;5033889;28;20811;-75
2023/04/17 07:36:03;;;;;;;4.17;3.47;;;11.60;85.20;;;12.16;68.10;98411.97;5046042;28;20453;-73
2023/04/17 07:38:31;;;;;;;4.57;3.50;;;11.60;85.10;;;12.11;68.81;98400.97;5052934;28;20454;-73
2023/04/17 07:40:59;;;;;;;3.87;2.90;;;11.60;85.30;;;12.27;67.86;98410.47;5079351;28;20472;-75
2023/04/17 07:43:27;;;;;;;4.70;3.40;;;11.70;84.90;;;12.25;67.36;98409.03;5057037;28;20466;-74
2023/04/17 07:45:57;;;;;;;3.60;2.70;;;11.70;84.30;;;12.18;66.78;98396.34;5036792;28;20454;-71
2023/04/17 07:48:26;;;;;;;3.97;3.37;;;11.90;83.40;;;12.49;67.15;98417.41;5036740;28;20511;-73
2023/04/17 07:50:53;;;;;;;3.37;3.07;;;12.00;83.90;;;12.80;64.43;98408.47;5032105;28;20532;-76
2023/04/17 07:53:24;;;;;;;4.27;3.17;;;12.20;82.50;;;12.51;64.63;98418.03;5035882;28;20471;-73
2023/04/17 07:55:53;;;;;;;2.50;2.30;;;12.10;81.50;;;12.74;63.78;98410.16;5044923;28;20598;-74
2023/04/17 07:58:21;;;;;;;3.60;2.73;;;12.10;81.80;;;11.90;65.29;98356.91;5057331;28;20562;-74
2023/04/17 08:00:50;;;;;;;3.87;2.80;;;12.00;81.80;;;12.37;64.91;98418.13;5073194;28;20461;-73
2023/04/17 08:03:22;;;;;;;2.87;2.57;;;11.90;81.80;;;12.06;66.10;98419.75;5053050;28;20528;-77
2023/04/17 08:05:50;;;;;;;4.30;2.73;;;11.80;82.00;;;12.16;65.54;98420.09;5056034;28;20475;-76
2023/04/17 08:08:18;;;;;;;3.07;2.63;;;11.70;82.10;;;12.23;65.87;98421.97;5049961;28;20987;-74
2023/04/17 08:10:46;;;;;;;2.77;2.47;;;11.70;82.80;;;12.25;65.47;98431.53;5050018;28;20538;-74
2023/04/17 08:13:13;;;;;;;3.63;2.60;;;11.60;82.20;;;12.30;64.32;98430.88;5053221;28;20488;-76
2023/04/17 08:15:40;;;;;;;2.93;1.90;;;11.70;81.50;;;12.26;65.09;98432.38;5049365;28;20543;-74
2023/04/17 08:18:08;;;;;;;3.83;2.27;;;11.80;81.70;;;12.59;63.69;98436.75;5055015;28;20448;-75
2023/04/17 08:20:36;;;;;;;2.30;1.80;;;11.90;81.30;;;12.46;64.20;98435.78;5044178;28;20801;-75
2023/04/17 08:23:04;;;;;;;2.77;2.53;;;11.90;81.30;;;12.29;64.14;98434.63;5046599;28;20479;-73
2023/04/17 08:25:32;;;;;;;2.33;2.13;;;11.90;80.90;;;12.11;64.77;98438.03;5068177;28;20446;-75
2023/04/17 08:27:59;;;;;;;2.43;2.20;;;11.80;81.10;;;11.94;66.20;98443.09;5072789;28;20576;-75
2023/04/17 08:30:26;;;;;;;4.53;2.27;;;11.60;81.70;;;11.95;65.69;98431.22;5048848;28;20466;-73
2023/04/17 08:32:56;;;;;;;1.97;1.70;;;11.60;81.90;;;12.12;65.26;98448.69;5048902;28;20464;-74
2023/04/17 08:35:24;;;;;;;3.77;2.70;;;11.60;81.90;;;11.87;66.32;98443.13;5045337;28;20548;-73
2023/04/17 08:37:55;;;;;;;7.00;2.20;;;11.60;81.60;;;11.95;65.63;98433.94;5047897;28;20987;-73
2023/04/17 08:40:24;;;;;;;2.37;1.90;;;11.60;81.60;;;11.79;66.70;98441.47;5029478;28;20465;-75
2023/04/17 08:42:53;;;;;;;2.60;2.40;;;11.50;81.80;;;11.60;65.63;98395.31;5047999;28;20445;-74
2023/04/17 08:45:23;;;;;;;2.13;1.70;;;11.60;81.50;;;11.92;64.81;98446.00;5054243;28;20470;-75
2023/04/17 08:47:50;;;;;;;2.20;2.00;;;11.70;80.90;;;12.03;64.62;98441.81;5047757;28;20576;-74
2023/04/17 08:50:20;;;;;;;2.20;1.47;;;11.70;80.70;;;11.97;64.16;98438.06;5045331;28;20454;-77
2023/04/17 08:52:50;;;;;;;1.60;1.50;;;11.70;80.30;;;12.25;63.58;98444.25;5034197;28;20450;-76
2023/04/17 08:55:21;;;;;;;2.40;2.20;;;11.70;80.40;;;12.14;63.21;98441.16;5043646;28;20459;-74
2023/04/17 08:57:56;;;;;;;2.10;1.70;;;11.80;79.70;;;12.36;62.68;98446.28;5041455;28;21019;-74
2023/04/17 09:00:29;;;;;;;1.50;1.40;;;11.90;80.00;;;12.72;61.92;98442.09;5065354;28;20534;-75
2023/04/17 09:02:58;;;;;;;1.77;1.50;;;12.00;79.80;;;13.01;61.90;98433.53;5038332;28;20468;-76
2023/04/17 09:05:29;;;;;;;2.77;1.87;;;12.30;80.30;;;13.02;62.19;98437.91;5040836;28;20464;-75
2023/04/17 09:08:10;;;;;;;2.80;2.00;;;12.50;80.20;;;12.65;63.12;98444.00;5041728;28;20503;-74
2023/04/17 09:10:40;;;;;;;1.90;1.80;;;12.30;80.20;;;12.57;63.32;98455.13;5038846;28;20967;-73
2023/04/17 09:13:08;;;;;;;2.70;2.20;;;12.20;80.00;;;12.75;62.73;98448.97;5043863;28;21159;-75
2023/04/17 09:15:36;;;;;;;1.93;1.50;;;12.30;80.00;;;12.42;62.97;98448.13;5042241;28;20443;-76
2023/04/17 09:18:04;;;;;;;1.60;1.50;;;12.20;79.50;;;12.95;62.03;98442.56;5037114;28;20907;-72
2023/04/17 09:20:31;;;;;;;1.90;1.73;;;12.30;79.70;;;13.13;60.55;98436.38;5061201;28;20441;-75
2023/04/17 09:23:04;;;;;;;2.13;1.33;;;12.50;78.80;;;12.87;60.78;98447.19;5047232;28;20462;-72
2023/04/17 09:25:32;;;;;;;2.90;1.43;;;12.40;78.20;;;12.78;60.14;98436.84;5065108;28;20495;-73
2023/04/17 09:28:12;;;;;;;2.27;1.40;;;12.50;77.70;;;13.10;59.83;98434.09;5040256;28;20517;-72
2023/04/17 09:30:40;;;;;;;1.50;1.40;;;12.70;77.50;;;13.46;57.33;98435.25;5038247;28;20480;-71
2023/04/17 09:33:10;;;;;;;2.03;1.83;;;13.10;75.90;;;13.85;57.29;98437.78;5040570;28;20981;-73
2023/04/17 09:35:38;;;;;;;1.43;1.30;;;13.30;75.80;;;14.08;56.11;98434.38;5037007;28;20457;-70
2023/04/17 09:38:06;;;;;;;2.10;1.50;;;13.70;74.60;;;14.77;54.80;98443.28;5033343;28;21026;-72
2023/04/17 09:40:39;;;;;;;1.97;1.77;;;14.00;74.30;;;14.90;54.33;98428.66;5050352;28;20614;-72
2023/04/17 09:43:08;;;;;;;1.43;1.20;;;14.40;73.40;;;14.72;53.72;98425.78;5032945;28;21234;-69
2023/04/17 09:45:40;;;;;;;1.80;1.57;;;14.50;72.00;;;14.13;55.37;98442.66;5063241;28;20439;-72
2023/04/17 09:48:09;;;;;;;2.00;1.80;;;14.10;72.00;;;14.10;54.68;98437.69;5038062;28;20482;-72
2023/04/17 09:50:37;;;;;;;1.40;1.30;;;13.90;71.60;;;14.02;55.70;98427.09;5031677;28;20458;-74
2023/04/17 09:53:06;;;;;;;1.30;1.20;;;13.70;72.40;;;14.01;55.88;98439.88;5048260;28;20459;-71
2023/04/17 09:55:36;;;;;;;2.00;1.80;;;13.60;72.80;;;13.59;56.48;98432.41;5039469;28;20464;-70
2023/04/17 09:58:06;;;;;;;1.87;1.60;;;13.40;72.50;;;13.74;56.93;98444.78;5062206;28;20521;-72
2023/04/17 10:00:33;;;;;;;1.90;1.50;;;13.30;73.60;;;13.87;56.23;98441.09;5035995;28;20469;-71
2023/04/17 10:03:01;;;;;;;1.50;1.37;;;13.40;73.30;;;13.62;56.70;98441.16;5048681;28;20460;-73
2023/04/17 10:05:31;;;;;;;2.27;1.40;;;13.30;73.10;;;13.69;56.51;98431.03;5072740;28;20524;-72
2023/04/17 10:07:58;;;;;;;2.13;1.43;;;13.20;73.50;;;13.51;56.53;98440.03;5046597;28;20462;-73
2023/04/17 10:10:32;;;;;;;1.80;1.30;;;13.10;73.00;;;13.26;57.24;98440.84;5054911;28;20455;-73
2023/04/17 10:13:02;;;;;;;1.50;1.40;;;13.00;73.40;;;13.36;57.10;98437.63;5050040;28;22991;-71
2023/04/17 10:15:29;;;;;;;1.47;1.10;;;13.00;73.10;;;13.48;56.84;98438.59;5061302;28;20589;-74
2023/04/17 10:18:21;;;;;;;1.50;1.17;;;13.00;73.10;;;13.42;56.45;98439.44;5051077;28;20492;-75
2023/04/17 10:20:49;;;;;;;1.60;1.50;;;13.00;72.70;;;13.30;56.78;98442.03;5040158;28;20541;-74
2023/04/17 10:23:32;;;;;;;1.07;0.90;;;12.90;72.90;;;13.22;56.63;98431.50;5035254;28;20454;-77
2023/04/17 10:26:40;;;;;;;1.10;1.00;;;12.80;72.60;;;12.98;57.52;98426.69;5048064;28;20459;-74
2023/04/17 10:29:08;;;;;;;1.03;0.93;;;12.70;72.70;;;13.17;56.71;98440.28;5063349;28;20570;-76
2023/04/17 10:32:27;;;;;;;1.47;1.33;;;12.70;72.70;;;13.48;55.78;98433.16;5037694;28;20450;-73
2023/04/17 10:34:57;;;;;;;1.80;1.40;;;12.90;72.30;;;13.43;56.58;98438.41;5028842;28;20464;-75